Time;durP1;ratioP1;P1;durP2;ratioP2;P2;SDS_P1;SDS_P2;PMS_P1;PMS_P2;Temp;Humidity;BMP_temperature;BMP_pressure;BME280_temperature;BME280_humidity;BME280_pressure;Samples;Min_cycle;Max_cycle;Signal;HPM_P1;HPM_P2
2024/03/03 00:01:20;;;;;;;;;;;9.10;70.30;;;;;;5070525;28;19920;-71
2024/03/03 00:03:46;;;;;;;;;;;9.10;70.10;;;;;;5071193;28;20366;-73
2024/03/03 00:06:12;;;;;;;;;;;9.00;69.90;;;;;;5071217;28;19912;-74
2024/03/03 00:08:38;;;;;;;;;;;9.00;70.00;;;;;;5072316;28;19951;-74
2024/03/03 00:11:04;;;;;;;;;;;8.90;70.30;;;;;;5071771;28;19951;-74
2024/03/03 00:13:31;;;;;;;;;;;8.90;69.80;;;;;;5071013;28;19920;-70
2024/03/03 00:15:57;;;;;;;;;;;8.90;70.60;;;;;;5054268;28;19912;-74
2024/03/03 00:18:23;;;;;;;;;;;8.80;70.40;;;;;;5072485;28;20301;-71
2024/03/03 00:20:49;;;;;;;;;;;8.80;70.50;;;;;;5070122;28;19921;-71
2024/03/03 00:23:15;;;;;;;;;;;8.70;70.50;;;;;;5072416;28;20028;-71
2024/03/03 00:25:41;;;;;;;;;;;8.60;70.30;;;;;;5070649;28;19919;-71
2024/03/03 00:28:07;;;;;;;;;;;8.50;71.30;;;;;;5072390;28;20384;-74
2024/03/03 00:30:33;;;;;;;;;;;8.50;70.40;;;;;;5070214;28;20027;-74
2024/03/03 00:32:59;;;;;;;;;;;8.50;70.40;;;;;;5070822;28;20023;-71
2024/03/03 00:35:24;;;;;;;;;;;8.40;70.30;;;;;;5070394;28;19916;-74
2024/03/03 00:37:50;;;;;;;;;;;8.40;70.20;;;;;;5070808;28;20685;-71
2024/03/03 00:40:16;;;;;;;;;;;8.40;70.40;;;;;;5069973;28;20325;-74
2024/03/03 00:42:42;;;;;;;;;;;8.40;69.90;;;;;;5072191;28;19920;-74
2024/03/03 00:45:08;;;;;;;;;;;8.30;71.00;;;;;;5070499;28;20010;-74
2024/03/03 00:47:34;;;;;;;;;;;8.20;70.20;;;;;;5070533;28;19921;-74
2024/03/03 00:50:00;;;;;;;;;;;8.20;70.30;;;;;;5072155;28;20034;-76
2024/03/03 00:52:26;;;;;;;;;;;8.10;70.30;;;;;;5071626;28;20031;-70
2024/03/03 00:54:52;;;;;;;;;;;8.10;70.60;;;;;;5053507;28;20030;-71
2024/03/03 00:57:18;;;;;;;;;;;8.10;71.40;;;;;;5070458;28;20364;-74
2024/03/03 00:59:44;;;;;;;;;;;8.00;70.20;;;;;;5053851;28;19916;-71
2024/03/03 01:02:10;;;;;;;;;;;8.00;70.60;;;;;;5069952;28;19923;-74
2024/03/03 01:04:35;;;;;;;;;;;8.00;70.50;;;;;;5071581;28;19947;-71
2024/03/03 01:07:01;;;;;;;;;;;8.00;70.30;;;;;;5071781;28;20020;-74
2024/03/03 01:09:29;;;;;;;;;;;8.00;70.30;;;;;;5071581;28;19912;-74
2024/03/03 01:11:55;;;;;;;;;;;8.00;70.20;;;;;;5069921;28;20367;-71
2024/03/03 01:14:39;;;;;;;;;;;8.00;70.20;;;;;;5070614;28;19920;-73
2024/03/03 01:17:06;;;;;;;;;;;8.10;69.80;;;;;;5070289;28;19921;-74
2024/03/03 01:19:32;;;;;;;;;;;8.00;69.70;;;;;;5070285;28;19912;-74
2024/03/03 01:21:57;;;;;;;;;;;8.00;70.00;;;;;;5071154;28;19973;-74
2024/03/03 01:24:23;;;;;;;;;;;8.00;69.80;;;;;;5053362;28;19959;-71
2024/03/03 01:26:49;;;;;;;;;;;8.00;69.70;;;;;;5071598;28;20014;-70
2024/03/03 01:29:15;;;;;;;;;;;8.00;69.30;;;;;;5070154;28;19918;-74
2024/03/03 01:31:42;;;;;;;;;;;8.10;69.30;;;;;;5071343;28;20391;-70
2024/03/03 01:34:08;;;;;;;;;;;8.00;69.50;;;;;;5071189;28;19912;-74
2024/03/03 01:36:34;;;;;;;;;;;8.00;69.60;;;;;;5071349;28;20004;-70
2024/03/03 01:39:01;;;;;;;;;;;8.00;69.80;;;;;;5071471;28;19999;-70
2024/03/03 01:41:27;;;;;;;;;;;8.00;70.10;;;;;;5070647;28;19921;-70
2024/03/03 01:43:53;;;;;;;;;;;8.00;69.30;;;;;;5070154;28;19924;-70
2024/03/03 01:46:19;;;;;;;;;;;7.90;70.40;;;;;;5069826;28;19999;-74
2024/03/03 01:48:46;;;;;;;;;;;7.90;70.10;;;;;;5071303;28;19920;-73
2024/03/03 01:51:12;;;;;;;;;;;8.00;70.40;;;;;;5070778;28;19916;-74
2024/03/03 01:53:40;;;;;;;;;;;8.00;70.60;;;;;;5069983;28;19920;-74
2024/03/03 01:56:06;;;;;;;;;;;8.00;70.30;;;;;;5069808;28;19916;-74
2024/03/03 01:58:32;;;;;;;;;;;8.10;69.90;;;;;;5070112;28;20366;-70
2024/03/03 02:01:00;;;;;;;;;;;8.20;70.20;;;;;;5070647;28;19920;-71
2024/03/03 02:03:27;;;;;;;;;;;8.30;69.90;;;;;;5069770;28;20228;-70
2024/03/03 02:05:53;;;;;;;;;;;8.30;69.80;;;;;;5070657;28;19912;-74
2024/03/03 02:08:19;;;;;;;;;;;8.30;69.20;;;;;;5074931;28;19927;-74
2024/03/03 02:10:46;;;;;;;;;;;8.30;69.90;;;;;;5072887;28;19921;-70
2024/03/03 02:13:12;;;;;;;;;;;8.20;70.10;;;;;;5073365;28;19921;-71
2024/03/03 02:15:38;;;;;;;;;;;8.10;70.70;;;;;;5074221;28;19923;-70
2024/03/03 02:18:04;;;;;;;;;;;8.00;70.90;;;;;;5073243;28;19966;-71
2024/03/03 02:20:30;;;;;;;;;;;8.00;71.10;;;;;;5074004;28;19916;-74
2024/03/03 02:22:55;;;;;;;;;;;7.90;71.60;;;;;;5073287;28;20170;-70
2024/03/03 02:25:21;;;;;;;;;;;7.90;71.60;;;;;;5072873;28;20425;-74
2024/03/03 02:27:47;;;;;;;;;;;7.90;71.30;;;;;;5073094;28;19920;-74
2024/03/03 02:30:13;;;;;;;;;;;7.90;71.00;;;;;;5055801;28;19916;-73
2024/03/03 02:32:39;;;;;;;;;;;7.90;70.90;;;;;;5074586;28;19935;-74
2024/03/03 02:35:05;;;;;;;;;;;8.00;70.40;;;;;;5074014;28;19973;-72
2024/03/03 02:37:31;;;;;;;;;;;8.00;70.70;;;;;;5073790;28;19927;-70
2024/03/03 02:39:57;;;;;;;;;;;8.00;71.10;;;;;;5072819;28;20392;-73
2024/03/03 02:42:23;;;;;;;;;;;8.10;70.90;;;;;;5073922;28;20288;-74
2024/03/03 02:44:49;;;;;;;;;;;8.10;71.00;;;;;;5055912;28;19912;-70
2024/03/03 02:47:15;;;;;;;;;;;8.20;70.90;;;;;;5073869;28;20231;-70
2024/03/03 02:49:41;;;;;;;;;;;8.20;70.90;;;;;;5055919;28;20003;-70
2024/03/03 02:52:07;;;;;;;;;;;8.20;70.70;;;;;;5071932;28;20369;-74
2024/03/03 02:54:32;;;;;;;;;;;8.30;70.00;;;;;;5073771;28;19916;-70
2024/03/03 02:56:58;;;;;;;;;;;8.30;70.40;;;;;;5072576;28;19967;-70
2024/03/03 02:59:24;;;;;;;;;;;8.40;70.40;;;;;;5073522;28;19919;-70
2024/03/03 03:01:50;;;;;;;;;;;8.30;70.70;;;;;;5073411;28;19920;-73
2024/03/03 03:04:16;;;;;;;;;;;8.30;71.00;;;;;;5073438;28;20015;-70
2024/03/03 03:06:42;;;;;;;;;;;8.30;72.50;;;;;;5072392;28;20367;-74
2024/03/03 03:09:08;;;;;;;;;;;8.30;71.50;;;;;;5073600;28;19913;-75
2024/03/03 03:11:36;;;;;;;;;;;8.40;70.90;;;;;;5071850;28;20456;-74
2024/03/03 03:14:02;;;;;;;;;;;8.40;70.70;;;;;;5073840;28;19916;-74
2024/03/03 03:16:28;;;;;;;;;;;8.50;70.50;;;;;;5073108;28;19912;-70
2024/03/03 03:18:53;;;;;;;;;;;8.40;71.00;;;;;;5072302;28;19978;-74
2024/03/03 03:21:21;;;;;;;;;;;8.40;70.90;;;;;;5071656;28;19916;-70
2024/03/03 03:23:47;;;;;;;;;;;8.50;71.30;;;;;;5071914;28;20403;-70
2024/03/03 03:26:13;;;;;;;;;;;8.50;70.70;;;;;;5071633;28;20015;-71
2024/03/03 03:28:41;;;;;;;;;;;8.50;71.00;;;;;;5071992;28;19917;-74
2024/03/03 03:31:08;;;;;;;;;;;8.50;71.30;;;;;;5072645;28;19970;-74
2024/03/03 03:33:33;;;;;;;;;;;8.50;71.40;;;;;;5071714;28;19917;-74
2024/03/03 03:35:59;;;;;;;;;;;8.50;71.20;;;;;;5071755;28;20300;-70
2024/03/03 03:38:25;;;;;;;;;;;8.40;71.00;;;;;;5055371;28;19920;-74
2024/03/03 03:40:51;;;;;;;;;;;8.40;71.20;;;;;;5072434;28;19942;-74
2024/03/03 03:43:17;;;;;;;;;;;8.40;71.30;;;;;;5071449;28;20116;-74
2024/03/03 03:45:43;;;;;;;;;;;8.40;71.20;;;;;;5072704;28;19959;-70
2024/03/03 03:48:08;;;;;;;;;;;8.40;71.30;;;;;;5071566;28;19954;-70
2024/03/03 03:50:34;;;;;;;;;;;8.40;71.40;;;;;;5054326;28;19924;-70
2024/03/03 03:53:00;;;;;;;;;;;8.40;71.40;;;;;;5071687;28;19924;-71
2024/03/03 03:55:26;;;;;;;;;;;8.40;71.70;;;;;;5072858;28;19920;-70
2024/03/03 03:57:52;;;;;;;;;;;8.40;71.50;;;;;;5071387;28;20019;-71
2024/03/03 04:00:18;;;;;;;;;;;8.30;71.50;;;;;;5070610;28;20007;-74
2024/03/03 04:02:44;;;;;;;;;;;8.30;71.60;;;;;;5071367;28;19922;-71
2024/03/03 04:05:10;;;;;;;;;;;8.30;71.80;;;;;;5072395;28;20007;-74
2024/03/03 04:07:37;;;;;;;;;;;8.40;71.50;;;;;;5071398;28;20022;-71
2024/03/03 04:10:04;;;;;;;;;;;8.40;71.30;;;;;;5070865;28;20194;-73
2024/03/03 04:12:30;;;;;;;;;;;8.40;71.20;;;;;;5071382;28;19927;-71
2024/03/03 04:14:56;;;;;;;;;;;8.40;71.30;;;;;;5072695;28;19912;-71
2024/03/03 04:17:22;;;;;;;;;;;8.40;70.90;;;;;;5054433;28;19927;-71
2024/03/03 04:19:47;;;;;;;;;;;8.40;71.50;;;;;;5071111;28;19912;-71
2024/03/03 04:22:13;;;;;;;;;;;8.50;71.60;;;;;;5070748;28;20008;-70
2024/03/03 04:24:39;;;;;;;;;;;8.50;71.60;;;;;;5070876;28;20007;-74
2024/03/03 04:27:05;;;;;;;;;;;8.50;71.70;;;;;;5072238;28;19956;-74
2024/03/03 04:29:32;;;;;;;;;;;8.40;72.00;;;;;;5070317;28;19954;-70
2024/03/03 04:31:58;;;;;;;;;;;8.40;72.40;;;;;;5053752;28;19943;-71
2024/03/03 04:34:43;;;;;;;;;;;8.40;72.20;;;;;;5071641;28;19912;-71
2024/03/03 04:37:09;;;;;;;;;;;8.50;71.80;;;;;;5070777;28;20074;-71
2024/03/03 04:39:36;;;;;;;;;;;8.50;71.40;;;;;;5070728;28;19919;-70
2024/03/03 04:42:02;;;;;;;;;;;8.50;71.50;;;;;;5069937;28;19959;-74
2024/03/03 04:44:30;;;;;;;;;;;8.50;72.00;;;;;;5070584;28;19934;-71
2024/03/03 04:46:56;;;;;;;;;;;8.50;71.70;;;;;;5070612;28;19921;-70
2024/03/03 04:49:23;;;;;;;;;;;8.30;71.30;;;;;;5070306;28;19995;-74
2024/03/03 04:51:49;;;;;;;;;;;8.30;71.70;;;;;;5070022;28;19920;-74
2024/03/03 04:54:15;;;;;;;;;;;8.30;72.40;;;;;;5053723;28;20366;-74
2024/03/03 04:56:41;;;;;;;;;;;8.30;72.40;;;;;;5070568;28;19963;-74
2024/03/03 04:59:07;;;;;;;;;;;8.20;71.80;;;;;;5070546;28;19962;-70
2024/03/03 05:01:33;;;;;;;;;;;8.20;72.30;;;;;;5071508;28;19916;-71
2024/03/03 05:04:00;;;;;;;;;;;8.20;71.80;;;;;;5070242;28;19971;-70
2024/03/03 05:06:26;;;;;;;;;;;8.20;72.00;;;;;;5070224;28;20297;-70
2024/03/03 05:08:52;;;;;;;;;;;8.20;72.20;;;;;;5071737;28;19920;-71
2024/03/03 05:11:18;;;;;;;;;;;8.10;72.30;;;;;;5070039;28;19923;-70
2024/03/03 05:13:44;;;;;;;;;;;8.10;72.10;;;;;;5072307;28;19912;-70
2024/03/03 05:16:11;;;;;;;;;;;8.20;72.10;;;;;;5070158;28;19920;-70
2024/03/03 05:18:37;;;;;;;;;;;8.10;71.90;;;;;;5053794;28;19916;-70
2024/03/03 05:21:03;;;;;;;;;;;8.10;72.00;;;;;;5052869;28;20015;-74
2024/03/03 05:23:29;;;;;;;;;;;8.10;71.20;;;;;;5072089;28;20423;-71
2024/03/03 05:25:55;;;;;;;;;;;8.10;71.90;;;;;;5053447;28;19999;-71
2024/03/03 05:28:21;;;;;;;;;;;8.10;73.10;;;;;;5070218;28;20007;-70
2024/03/03 05:30:47;;;;;;;;;;;8.00;72.30;;;;;;5052953;28;19976;-74
2024/03/03 05:33:13;;;;;;;;;;;7.90;72.80;;;;;;5071610;28;20284;-71
2024/03/03 05:35:40;;;;;;;;;;;7.90;72.80;;;;;;5071190;28;19995;-71
2024/03/03 05:38:05;;;;;;;;;;;7.80;73.20;;;;;;5071176;28;20003;-71
2024/03/03 05:40:31;;;;;;;;;;;7.70;73.20;;;;;;5071195;28;20365;-70
2024/03/03 05:42:57;;;;;;;;;;;7.70;73.20;;;;;;5057157;28;20327;-74
2024/03/03 05:45:23;;;;;;;;;;;7.60;73.40;;;;;;5074858;28;20140;-73
2024/03/03 05:47:49;;;;;;;;;;;7.60;73.40;;;;;;5073821;28;20377;-74
2024/03/03 05:50:15;;;;;;;;;;;7.60;73.50;;;;;;5073179;28;20285;-74
2024/03/03 05:52:41;;;;;;;;;;;7.50;73.40;;;;;;5075181;28;19916;-73
2024/03/03 05:55:08;;;;;;;;;;;7.50;73.40;;;;;;5073479;28;19970;-70
2024/03/03 05:57:34;;;;;;;;;;;7.50;72.90;;;;;;5073646;28;19916;-71
2024/03/03 06:00:00;;;;;;;;;;;7.40;73.80;;;;;;5074862;28;19923;-73
2024/03/03 06:02:26;;;;;;;;;;;7.40;74.40;;;;;;5074459;28;19931;-74
2024/03/03 06:04:52;;;;;;;;;;;7.40;74.00;;;;;;5074854;28;19923;-71
2024/03/03 06:07:17;;;;;;;;;;;7.40;74.00;;;;;;5073130;28;19947;-71
2024/03/03 06:09:43;;;;;;;;;;;7.40;73.80;;;;;;5074668;28;19919;-70
2024/03/03 06:12:09;;;;;;;;;;;7.40;73.90;;;;;;5073905;28;19920;-70
2024/03/03 06:14:35;;;;;;;;;;;7.40;73.70;;;;;;5073393;28;19962;-70
2024/03/03 06:17:01;;;;;;;;;;;7.40;74.10;;;;;;5074211;28;19921;-71
2024/03/03 06:19:27;;;;;;;;;;;7.40;74.40;;;;;;5073136;28;19916;-74
2024/03/03 06:21:53;;;;;;;;;;;7.40;74.40;;;;;;5072680;28;19920;-71
2024/03/03 06:24:20;;;;;;;;;;;7.50;74.50;;;;;;5074447;28;19916;-74
2024/03/03 06:26:46;;;;;;;;;;;7.60;74.20;;;;;;5074237;28;19924;-71
2024/03/03 06:29:12;;;;;;;;;;;7.60;73.80;;;;;;5072928;28;19916;-74
2024/03/03 06:31:56;;;;;;;;;;;7.70;74.30;;;;;;5055647;28;19945;-71
2024/03/03 06:34:22;;;;;;;;;;;7.70;74.60;;;;;;5072739;28;19916;-71
2024/03/03 06:36:49;;;;;;;;;;;7.80;74.40;;;;;;5074226;28;19938;-74
2024/03/03 06:39:14;;;;;;;;;;;7.80;74.20;;;;;;5055881;28;19916;-70
2024/03/03 06:41:43;;;;;;;;;;;7.80;74.30;;;;;;5073525;28;19927;-71
2024/03/03 06:44:11;;;;;;;;;;;7.80;74.10;;;;;;5073613;28;19959;-74
2024/03/03 06:46:43;;;;;;;;;;;7.90;74.70;;;;;;5073895;28;19966;-70
2024/03/03 06:49:09;;;;;;;;;;;7.90;74.60;;;;;;5073760;28;19916;-74
2024/03/03 06:51:35;;;;;;;;;;;8.00;74.00;;;;;;5071617;28;19921;-74
2024/03/03 06:54:01;;;;;;;;;;;8.20;74.60;;;;;;5072420;28;20391;-71
2024/03/03 06:56:27;;;;;;;;;;;8.30;74.70;;;;;;5073581;28;20380;-74
2024/03/03 06:58:53;;;;;;;;;;;8.40;74.20;;;;;;5072498;28;19920;-70
2024/03/03 07:01:19;;;;;;;;;;;8.50;74.10;;;;;;5073051;28;20387;-74
2024/03/03 07:06:30;;;;;;;;;;;8.50;73.90;;;;;;5073453;28;19969;-74
2024/03/03 07:08:55;;;;;;;;;;;8.50;74.20;;;;;;5072120;28;19924;-74
2024/03/03 07:11:21;;;;;;;;;;;8.50;74.20;;;;;;5073042;28;20181;-74
2024/03/03 07:13:47;;;;;;;;;;;8.60;74.10;;;;;;5055720;28;19920;-70
2024/03/03 07:16:13;;;;;;;;;;;8.60;73.90;;;;;;5072120;28;19913;-71
2024/03/03 07:18:39;;;;;;;;;;;8.70;73.70;;;;;;5073689;28;19995;-70
2024/03/03 07:21:05;;;;;;;;;;;8.80;73.90;;;;;;5072697;28;20296;-71
2024/03/03 07:23:31;;;;;;;;;;;8.80;73.90;;;;;;5071985;28;20266;-73
2024/03/03 07:25:57;;;;;;;;;;;8.90;74.60;;;;;;5071938;28;19948;-74
2024/03/03 07:28:22;;;;;;;;;;;9.00;74.60;;;;;;5073490;28;19973;-74
2024/03/03 07:30:48;;;;;;;;;;;9.10;74.40;;;;;;5072583;28;20388;-71
2024/03/03 07:33:14;;;;;;;;;;;9.20;74.40;;;;;;5073398;28;20442;-71
2024/03/03 07:35:40;;;;;;;;;;;9.30;75.10;;;;;;5072742;28;20326;-71
2024/03/03 07:38:06;;;;;;;;;;;9.40;75.90;;;;;;5073154;28;19920;-74
2024/03/03 07:40:36;;;;;;;;;;;9.50;76.30;;;;;;5071018;28;19995;-74
2024/03/03 07:43:04;;;;;;;;;;;9.60;76.20;;;;;;5072635;28;19947;-74
2024/03/03 07:45:30;;;;;;;;;;;9.70;75.90;;;;;;5054794;28;19912;-74
2024/03/03 07:47:56;;;;;;;;;;;9.80;75.90;;;;;;5072826;28;19920;-70
2024/03/03 07:50:22;;;;;;;;;;;9.90;76.10;;;;;;5080566;28;19977;-70
2024/03/03 07:52:48;;;;;;;;;;;10.10;76.00;;;;;;5082502;28;20323;-70
2024/03/03 07:55:14;;;;;;;;;;;10.20;75.70;;;;;;5092754;28;19916;-71
2024/03/03 07:57:40;;;;;;;;;;;10.30;75.30;;;;;;5076546;28;19924;-70
2024/03/03 08:00:06;;;;;;;;;;;10.40;75.80;;;;;;5072084;28;19999;-74
2024/03/03 08:02:32;;;;;;;;;;;10.60;75.00;;;;;;5054504;28;20358;-70
2024/03/03 08:04:59;;;;;;;;;;;10.70;74.50;;;;;;5073492;28;19917;-71
2024/03/03 08:07:24;;;;;;;;;;;10.90;74.50;;;;;;5082625;28;19971;-74
2024/03/03 08:09:51;;;;;;;;;;;11.00;74.00;;;;;;5081069;28;20285;-70
2024/03/03 08:12:17;;;;;;;;;;;11.20;73.70;;;;;;5078861;28;19924;-74
2024/03/03 08:14:43;;;;;;;;;;;11.50;73.10;;;;;;5078212;28;19935;-71
2024/03/03 08:17:09;;;;;;;;;;;12.10;72.20;;;;;;5074998;28;20032;-74
2024/03/03 08:19:35;;;;;;;;;;;13.20;69.90;;;;;;5057037;28;19916;-74
2024/03/03 08:22:01;;;;;;;;;;;14.10;66.50;;;;;;5069918;28;19920;-74
2024/03/03 08:24:27;;;;;;;;;;;15.10;63.60;;;;;;5072117;28;20442;-74
2024/03/03 08:26:53;;;;;;;;;;;15.90;62.40;;;;;;5070638;28;19926;-74
2024/03/03 08:29:20;;;;;;;;;;;16.80;58.20;;;;;;5070692;28;19912;-71
2024/03/03 08:31:45;;;;;;;;;;;17.60;55.90;;;;;;5086947;28;20359;-74
2024/03/03 08:34:12;;;;;;;;;;;18.50;53.10;;;;;;5076464;28;19912;-74
2024/03/03 08:36:39;;;;;;;;;;;19.20;50.40;;;;;;5090946;28;19916;-74
2024/03/03 08:39:05;;;;;;;;;;;20.00;47.10;;;;;;5092069;28;19919;-74
2024/03/03 08:41:32;;;;;;;;;;;20.90;46.80;;;;;;5090096;28;19916;-75
2024/03/03 08:43:59;;;;;;;;;;;21.60;44.50;;;;;;5090668;28;19920;-71
2024/03/03 08:46:26;;;;;;;;;;;22.40;40.20;;;;;;5075198;28;19951;-74
2024/03/03 08:48:51;;;;;;;;;;;22.90;37.80;;;;;;5071776;28;19971;-74
2024/03/03 08:51:17;;;;;;;;;;;23.40;36.00;;;;;;5069811;28;19920;-71
2024/03/03 08:53:43;;;;;;;;;;;23.60;34.00;;;;;;5071380;28;20011;-72
2024/03/03 08:56:09;;;;;;;;;;;24.20;33.10;;;;;;5070100;28;19923;-72
2024/03/03 08:58:35;;;;;;;;;;;24.60;29.70;;;;;;5087136;28;19920;-74
2024/03/03 09:01:01;;;;;;;;;;;24.60;29.60;;;;;;5071219;28;19922;-71
2024/03/03 09:03:27;;;;;;;;;;;24.70;30.60;;;;;;5070250;28;19924;-75
2024/03/03 09:05:53;;;;;;;;;;;25.30;30.30;;;;;;5070691;28;19998;-75
2024/03/03 09:08:18;;;;;;;;;;;25.80;28.80;;;;;;5080615;28;19927;-75
2024/03/03 09:10:44;;;;;;;;;;;26.20;26.70;;;;;;5074765;28;19916;-72
2024/03/03 09:13:10;;;;;;;;;;;26.30;27.00;;;;;;5092029;28;20190;-75
2024/03/03 09:15:36;;;;;;;;;;;26.30;27.50;;;;;;5092637;28;19919;-71
2024/03/03 09:18:03;;;;;;;;;;;26.30;27.20;;;;;;5096259;28;19920;-74
2024/03/03 09:20:29;;;;;;;;;;;26.30;26.60;;;;;;5111141;28;19920;-74
2024/03/03 09:22:55;;;;;;;;;;;27.00;26.60;;;;;;5096005;28;19924;-72
2024/03/03 09:25:21;;;;;;;;;;;27.10;25.10;;;;;;5081175;28;19916;-73
2024/03/03 09:27:47;;;;;;;;;;;27.10;25.40;;;;;;5091166;28;19966;-72
2024/03/03 09:30:13;;;;;;;;;;;27.50;25.00;;;;;;5072768;28;20396;-72
2024/03/03 09:32:39;;;;;;;;;;;27.10;23.70;;;;;;5074183;28;19920;-71
2024/03/03 09:35:06;;;;;;;;;;;27.30;25.30;;;;;;5094769;28;20006;-74
2024/03/03 09:37:32;;;;;;;;;;;27.70;23.70;;;;;;5094276;28;19920;-74
2024/03/03 09:39:58;;;;;;;;;;;27.80;24.20;;;;;;5090846;28;19916;-74
2024/03/03 09:42:24;;;;;;;;;;;27.40;25.00;;;;;;5100047;28;19926;-74
2024/03/03 09:47:36;;;;;;;;;;;25.90;24.80;;;;;;5094254;28;19931;-71
2024/03/03 09:50:03;;;;;;;;;;;24.80;26.90;;;;;;5093767;28;19934;-72
2024/03/03 09:52:31;;;;;;;;;;;23.90;28.20;;;;;;5093736;28;19924;-71
2024/03/03 09:54:58;;;;;;;;;;;23.10;29.30;;;;;;5093859;28;19912;-71
2024/03/03 09:57:24;;;;;;;;;;;22.60;30.00;;;;;;5093803;28;19920;-74
2024/03/03 09:59:53;;;;;;;;;;;22.00;30.60;;;;;;5076181;28;19919;-71
2024/03/03 10:02:20;;;;;;;;;;;21.60;32.70;;;;;;5072763;28;19921;-74
2024/03/03 10:04:46;;;;;;;;;;;21.30;33.00;;;;;;5056510;28;20385;-75
2024/03/03 10:07:21;;;;;;;;;;;21.40;32.70;;;;;;5073315;28;19924;-71
2024/03/03 10:10:08;;;;;;;;;;;21.40;32.70;;;;;;5073443;28;19942;-75
2024/03/03 10:12:35;;;;;;;;;;;21.40;33.60;;;;;;5074504;28;20368;-71
2024/03/03 10:15:04;;;;;;;;;;;21.40;33.80;;;;;;5076202;28;19962;-71
2024/03/03 10:17:30;;;;;;;;;;;21.50;33.60;;;;;;5094852;28;19923;-71
2024/03/03 10:20:15;;;;;;;;;;;21.60;32.80;;;;;;5093566;28;20353;-74
2024/03/03 10:22:43;;;;;;;;;;;21.80;31.80;;;;;;5094548;28;19916;-71
2024/03/03 10:25:30;;;;;;;;;;;22.10;33.00;;;;;;5093380;28;19916;-74
2024/03/03 10:28:29;;;;;;;;;;;22.10;30.20;;;;;;5092621;28;20319;-73
2024/03/03 10:31:15;;;;;;;;;;;22.20;30.40;;;;;;5094047;28;19959;-71
2024/03/03 10:34:00;;;;;;;;;;;22.80;30.20;;;;;;5093286;28;19916;-74
2024/03/03 10:36:28;;;;;;;;;;;22.90;28.20;;;;;;5094477;28;20368;-71
2024/03/03 10:38:54;;;;;;;;;;;23.00;28.50;;;;;;5093239;28;19916;-71
2024/03/03 10:41:20;;;;;;;;;;;22.80;28.50;;;;;;5092341;28;19920;-75
2024/03/03 10:43:46;;;;;;;;;;;22.50;28.40;;;;;;5094207;28;19927;-71
2024/03/03 10:46:13;;;;;;;;;;;22.80;28.10;;;;;;5094292;28;19918;-71
2024/03/03 10:48:42;;;;;;;;;;;22.80;28.00;;;;;;5092752;28;19919;-74
2024/03/03 10:51:08;;;;;;;;;;;23.20;27.30;;;;;;5093527;28;19930;-75
2024/03/03 10:53:34;;;;;;;;;;;22.90;27.80;;;;;;5075904;28;19920;-71
2024/03/03 10:56:00;;;;;;;;;;;22.40;27.80;;;;;;5092661;28;19962;-73
2024/03/03 10:58:29;;;;;;;;;;;22.50;29.10;;;;;;5075804;28;19997;-72
2024/03/03 11:00:55;;;;;;;;;;;22.40;28.30;;;;;;5080603;28;20308;-75
2024/03/03 11:03:22;;;;;;;;;;;22.30;28.40;;;;;;5092566;28;20033;-71
2024/03/03 11:05:50;;;;;;;;;;;22.30;27.70;;;;;;5074112;28;19966;-74
2024/03/03 11:08:18;;;;;;;;;;;22.30;28.70;;;;;;5073879;28;19924;-74
2024/03/03 11:10:44;;;;;;;;;;;22.00;28.30;;;;;;5072526;28;19916;-71
2024/03/03 11:13:10;;;;;;;;;;;21.90;29.00;;;;;;5071913;28;19966;-70
2024/03/03 11:15:37;;;;;;;;;;;21.30;28.90;;;;;;5072116;28;19916;-75
2024/03/03 11:18:10;;;;;;;;;;;20.80;29.40;;;;;;5072282;28;20022;-74
2024/03/03 11:20:40;;;;;;;;;;;20.70;30.90;;;;;;5071521;28;19967;-70
2024/03/03 11:23:43;;;;;;;;;;;20.70;29.30;;;;;;5071689;28;19955;-71
2024/03/03 11:26:27;;;;;;;;;;;20.50;28.80;;;;;;5073028;28;19923;-71
2024/03/03 11:31:42;;;;;;;;;;;19.90;31.30;;;;;;5091939;28;19959;-74
2024/03/03 11:34:08;;;;;;;;;;;19.80;31.10;;;;;;5082259;28;19916;-75
2024/03/03 11:36:35;;;;;;;;;;;19.70;30.80;;;;;;5080688;28;19916;-71
2024/03/03 11:39:21;;;;;;;;;;;20.20;29.70;;;;;;5080679;28;19962;-71
2024/03/03 11:41:47;;;;;;;;;;;20.10;30.60;;;;;;5076259;28;19920;-74
2024/03/03 11:44:50;;;;;;;;;;;19.90;29.70;;;;;;5091725;28;19916;-71
2024/03/03 11:47:16;;;;;;;;;;;19.80;32.00;;;;;;5085757;28;19931;-71
2024/03/03 11:49:43;;;;;;;;;;;19.80;31.80;;;;;;5091233;28;19920;-74
2024/03/03 11:52:09;;;;;;;;;;;19.90;31.80;;;;;;5090539;28;19963;-71
2024/03/03 11:54:54;;;;;;;;;;;19.90;30.80;;;;;;5091288;28;19916;-74
2024/03/03 11:57:20;;;;;;;;;;;20.30;30.90;;;;;;5092276;28;19920;-74
2024/03/03 11:59:46;;;;;;;;;;;20.90;31.00;;;;;;5091152;28;20357;-71
2024/03/03 12:02:31;;;;;;;;;;;21.10;29.80;;;;;;5091911;28;20014;-74
2024/03/03 12:05:04;;;;;;;;;;;21.40;28.70;;;;;;5091001;28;19916;-75
2024/03/03 12:07:33;;;;;;;;;;;21.70;29.10;;;;;;5091444;28;19962;-75
2024/03/03 12:09:59;;;;;;;;;;;21.10;29.80;;;;;;5092497;28;20010;-74
2024/03/03 12:12:24;;;;;;;;;;;20.80;30.10;;;;;;5090463;28;20365;-73
2024/03/03 12:14:51;;;;;;;;;;;20.30;30.80;;;;;;5082074;28;19912;-74
2024/03/03 12:17:17;;;;;;;;;;;20.00;32.00;;;;;;5087614;28;20425;-74
2024/03/03 12:19:43;;;;;;;;;;;19.80;32.60;;;;;;5072552;28;19912;-70
2024/03/03 12:22:09;;;;;;;;;;;19.50;33.80;;;;;;5070205;28;20006;-75
2024/03/03 12:24:36;;;;;;;;;;;19.30;33.40;;;;;;5072440;28;20361;-70
2024/03/03 12:30:00;;;;;;;;;;;18.90;34.30;;;;;;5072178;28;20082;-71
2024/03/03 12:32:27;;;;;;;;;;;18.90;34.90;;;;;;5071623;28;19920;-74
2024/03/03 12:34:56;;;;;;;;;;;18.90;34.50;;;;;;5070579;28;19912;-74
2024/03/03 12:37:23;;;;;;;;;;;18.80;34.80;;;;;;5087327;28;20019;-71
2024/03/03 12:39:51;;;;;;;;;;;18.90;36.60;;;;;;5070726;28;19962;-71
2024/03/03 12:42:17;;;;;;;;;;;19.30;34.10;;;;;;5053418;28;20328;-74
2024/03/03 12:44:43;;;;;;;;;;;19.50;34.40;;;;;;5071748;28;19917;-71
2024/03/03 12:47:27;;;;;;;;;;;19.80;34.10;;;;;;5070636;28;19921;-71
2024/03/03 12:49:53;;;;;;;;;;;20.10;33.50;;;;;;5075370;28;19916;-71
2024/03/03 12:52:19;;;;;;;;;;;21.00;33.20;;;;;;5070757;28;19959;-75
2024/03/03 12:54:47;;;;;;;;;;;22.20;30.00;;;;;;5090604;28;19970;-71
2024/03/03 12:57:13;;;;;;;;;;;22.20;30.00;;;;;;5090585;28;19920;-70
2024/03/03 12:59:40;;;;;;;;;;;22.20;30.00;;;;;;5090664;28;20455;-75
2024/03/03 13:02:14;;;;;;;;;;;22.40;30.00;;;;;;5090050;28;19961;-74
2024/03/03 13:04:40;;;;;;;;;;;22.20;28.60;;;;;;5091319;28;19973;-75
2024/03/03 13:07:25;;;;;;;;;;;21.60;29.90;;;;;;5070125;28;20246;-71
2024/03/03 13:09:51;;;;;;;;;;;21.80;30.10;;;;;;5070417;28;19916;-71
2024/03/03 13:12:17;;;;;;;;;;;21.70;30.00;;;;;;5087846;28;19941;-74
2024/03/03 13:14:43;;;;;;;;;;;21.80;28.50;;;;;;5090405;28;19920;-74
2024/03/03 13:17:10;;;;;;;;;;;23.80;28.00;;;;;;5090368;28;19916;-74
2024/03/03 13:19:56;;;;;;;;;;;26.10;24.20;;;;;;5073813;28;19923;-71
2024/03/03 13:22:22;;;;;;;;;;;27.50;23.00;;;;;;5084921;28;20035;-74
2024/03/03 13:25:08;;;;;;;;;;;28.80;20.50;;;;;;5071533;28;19923;-71
2024/03/03 13:27:34;;;;;;;;;;;28.30;19.80;;;;;;5071436;28;19923;-71
2024/03/03 13:30:06;;;;;;;;;;;26.10;22.60;;;;;;5087093;28;19974;-71
2024/03/03 13:32:33;;;;;;;;;;;24.60;24.80;;;;;;5071181;28;19916;-75
2024/03/03 13:34:59;;;;;;;;;;;23.60;25.30;;;;;;5071233;28;19916;-75
2024/03/03 13:37:25;;;;;;;;;;;23.00;27.10;;;;;;5099503;28;19920;-75
2024/03/03 13:39:51;;;;;;;;;;;22.60;27.10;;;;;;5078629;28;19961;-74
2024/03/03 13:42:16;;;;;;;;;;;22.30;28.40;;;;;;5089290;28;20310;-74
2024/03/03 13:44:42;;;;;;;;;;;24.10;26.90;;;;;;5089800;28;20428;-75
2024/03/03 13:47:10;;;;;;;;;;;26.50;23.00;;;;;;5075085;28;20334;-75
2024/03/03 13:49:36;;;;;;;;;;;27.60;22.40;;;;;;5090053;28;19915;-71
2024/03/03 13:52:06;;;;;;;;;;;28.80;20.30;;;;;;5090521;28;20007;-75
2024/03/03 13:54:51;;;;;;;;;;;30.10;18.70;;;;;;5089839;28;19916;-72
2024/03/03 13:57:16;;;;;;;;;;;31.80;18.20;;;;;;5076949;28;19981;-74
2024/03/03 13:59:42;;;;;;;;;;;31.80;17.50;;;;;;5069446;28;20167;-74
2024/03/03 14:02:08;;;;;;;;;;;32.50;17.10;;;;;;5070366;28;20278;-75
2024/03/03 14:04:34;;;;;;;;;;;33.10;16.70;;;;;;5074420;28;20417;-71
2024/03/03 14:07:02;;;;;;;;;;;32.90;15.40;;;;;;5074596;28;19966;-71
2024/03/03 14:09:29;;;;;;;;;;;32.90;15.50;;;;;;5090125;28;19923;-75
2024/03/03 14:11:55;;;;;;;;;;;32.90;15.50;;;;;;5072837;28;19921;-71
2024/03/03 14:14:21;;;;;;;;;;;33.30;15.70;;;;;;5087535;28;19923;-71
2024/03/03 14:16:46;;;;;;;;;;;33.30;15.00;;;;;;5093341;28;19920;-72
2024/03/03 14:19:12;;;;;;;;;;;32.60;16.00;;;;;;5093418;28;19938;-71
2024/03/03 14:21:38;;;;;;;;;;;31.80;16.70;;;;;;5092997;28;20399;-75
2024/03/03 14:24:04;;;;;;;;;;;31.00;17.70;;;;;;5093342;28;20011;-71
2024/03/03 14:26:30;;;;;;;;;;;29.90;18.10;;;;;;5094518;28;20012;-74
2024/03/03 14:28:56;;;;;;;;;;;29.90;18.30;;;;;;5093320;28;19916;-75
2024/03/03 14:31:22;;;;;;;;;;;30.40;17.50;;;;;;5092285;28;20435;-71
2024/03/03 14:33:49;;;;;;;;;;;28.60;19.00;;;;;;5089750;28;19920;-74
2024/03/03 14:36:35;;;;;;;;;;;27.00;20.90;;;;;;5074083;28;19935;-74